Terminal Aerodrome Forecast
Issued by NWS

Home | Current Version | Previous Version | Text Only | Print | Product List | Glossary On
Versions: 1 2 3 4 5 6 7 8 9 10 11 12 13
000
FTUS45 KLKN 252323
TAFELY
TAF
KELY 252323Z 2600/2624 20012G22KT P6SM VCTS SCT090CB BKN120
     FM260200 19007KT P6SM FEW100 SCT250
     FM262000 23010G20KT P6SM FEW110=

USA.gov is the U.S. government's official web portal to all federal, state and local government web resources and services.